GCLA/SPC METAR and TAF weather

Enter ICAO airport designator
Station Type Date Time Source
GCLA METAR 2019/10/18 07:00 UTC NOAA

GCLA 180700Z 32007KT 9999 BKN042 21/15 Q1021


Station Type Date Time Source
GCLA Decoded METAR 2019/10/18 07:00 UTC NOAA

La Palma / Aeropuerto, Spain (GCLA) 28-37N 017-45W 31M
Oct 18, 2019 - 03:00 AM EDT / 2019.10.18 0700 UTC
Wind: from the NW (320 degrees) at 8 MPH (7 KT):0
Visibility: greater than 7 mile(s):0
Sky conditions: mostly cloudy
Temperature: 69 F (21 C)
Dew Point: 59 F (15 C)
Relative Humidity: 68%
Pressure (altimeter): 30.15 in. Hg (1021 hPa)
ob: GCLA 180700Z 32007KT 9999 BKN042 21/15 Q1021
cycle: 7

Station Type Date Time Source
GCLA TAF 2019/10/18 03:27 UTC NOAA

TAF GCLA 180200Z 1803/1903 32007KT 9999 SCT030 TX26/1814Z TN20/1805Z

Example: see airport list